sensor_id;sensor_type;location;lat;lon;timestamp;temperature;humidity
72905;DHT22;61048;52.162;4.516;2023-03-19T00:00:20;18.00;61.20
72905;DHT22;61048;52.162;4.516;2023-03-19T00:02:47;18.10;61.40
72905;DHT22;61048;52.162;4.516;2023-03-19T00:05:16;18.10;61.30
72905;DHT22;61048;52.162;4.516;2023-03-19T00:07:44;18.10;61.30
72905;DHT22;61048;52.162;4.516;2023-03-19T00:10:12;18.10;61.30
72905;DHT22;61048;52.162;4.516;2023-03-19T00:12:39;18.10;61.20
72905;DHT22;61048;52.162;4.516;2023-03-19T00:15:07;18.10;61.20
72905;DHT22;61048;52.162;4.516;2023-03-19T00:17:39;18.10;61.10
72905;DHT22;61048;52.162;4.516;2023-03-19T00:20:08;18.10;61.20
72905;DHT22;61048;52.162;4.516;2023-03-19T00:22:36;18.10;61.20
72905;DHT22;61048;52.162;4.516;2023-03-19T00:25:05;18.10;61.30
72905;DHT22;61048;52.162;4.516;2023-03-19T00:27:32;18.00;61.30
72905;DHT22;61048;52.162;4.516;2023-03-19T00:29:59;18.00;61.40
72905;DHT22;61048;52.162;4.516;2023-03-19T00:32:27;18.10;61.40
72905;DHT22;61048;52.162;4.516;2023-03-19T00:34:55;18.10;61.50
72905;DHT22;61048;52.162;4.516;2023-03-19T00:37:22;18.10;61.60
72905;DHT22;61048;52.162;4.516;2023-03-19T00:39:49;18.10;61.60
72905;DHT22;61048;52.162;4.516;2023-03-19T00:42:16;18.10;61.80
72905;DHT22;61048;52.162;4.516;2023-03-19T00:44:43;18.10;61.70
72905;DHT22;61048;52.162;4.516;2023-03-19T00:47:10;18.10;61.90
72905;DHT22;61048;52.162;4.516;2023-03-19T00:49:37;18.10;61.80
72905;DHT22;61048;52.162;4.516;2023-03-19T00:52:05;18.10;61.80
72905;DHT22;61048;52.162;4.516;2023-03-19T00:54:33;18.10;61.60
72905;DHT22;61048;52.162;4.516;2023-03-19T00:57:00;18.10;61.50
72905;DHT22;61048;52.162;4.516;2023-03-19T00:59:27;18.10;61.50
72905;DHT22;61048;52.162;4.516;2023-03-19T01:01:53;18.10;61.60
72905;DHT22;61048;52.162;4.516;2023-03-19T01:04:21;18.10;61.50
72905;DHT22;61048;52.162;4.516;2023-03-19T01:06:48;18.10;61.40
72905;DHT22;61048;52.162;4.516;2023-03-19T01:09:17;18.10;61.50
72905;DHT22;61048;52.162;4.516;2023-03-19T01:11:44;18.00;61.50
72905;DHT22;61048;52.162;4.516;2023-03-19T01:14:11;18.10;61.40
72905;DHT22;61048;52.162;4.516;2023-03-19T01:16:38;18.10;61.50
72905;DHT22;61048;52.162;4.516;2023-03-19T01:19:05;18.10;61.40
72905;DHT22;61048;52.162;4.516;2023-03-19T01:21:32;18.00;61.60
72905;DHT22;61048;52.162;4.516;2023-03-19T01:24:01;18.00;61.50
72905;DHT22;61048;52.162;4.516;2023-03-19T01:26:29;18.00;61.40
72905;DHT22;61048;52.162;4.516;2023-03-19T01:28:56;18.10;61.40
72905;DHT22;61048;52.162;4.516;2023-03-19T01:31:23;18.00;61.40
72905;DHT22;61048;52.162;4.516;2023-03-19T01:33:50;18.00;61.50
72905;DHT22;61048;52.162;4.516;2023-03-19T01:36:17;18.00;61.50
72905;DHT22;61048;52.162;4.516;2023-03-19T01:38:44;18.00;61.40
72905;DHT22;61048;52.162;4.516;2023-03-19T01:41:11;18.00;61.50
72905;DHT22;61048;52.162;4.516;2023-03-19T01:43:39;18.00;61.50
72905;DHT22;61048;52.162;4.516;2023-03-19T01:46:10;18.00;61.40
72905;DHT22;61048;52.162;4.516;2023-03-19T01:48:41;18.00;61.40
72905;DHT22;61048;52.162;4.516;2023-03-19T01:51:11;18.00;61.50
72905;DHT22;61048;52.162;4.516;2023-03-19T01:53:41;18.00;61.40
72905;DHT22;61048;52.162;4.516;2023-03-19T01:56:14;18.00;61.30
72905;DHT22;61048;52.162;4.516;2023-03-19T01:58:44;18.00;61.50
72905;DHT22;61048;52.162;4.516;2023-03-19T02:01:12;18.00;61.30
72905;DHT22;61048;52.162;4.516;2023-03-19T02:03:39;18.00;61.40
72905;DHT22;61048;52.162;4.516;2023-03-19T02:06:07;18.00;61.50
72905;DHT22;61048;52.162;4.516;2023-03-19T02:08:36;18.00;61.50
72905;DHT22;61048;52.162;4.516;2023-03-19T02:11:04;18.00;61.40
72905;DHT22;61048;52.162;4.516;2023-03-19T02:13:33;18.00;61.50
72905;DHT22;61048;52.162;4.516;2023-03-19T02:16:01;18.00;61.50
72905;DHT22;61048;52.162;4.516;2023-03-19T02:18:29;18.00;61.40
72905;DHT22;61048;52.162;4.516;2023-03-19T02:20:59;18.00;61.40
72905;DHT22;61048;52.162;4.516;2023-03-19T02:23:33;18.00;61.50
72905;DHT22;61048;52.162;4.516;2023-03-19T02:26:07;18.00;61.40
72905;DHT22;61048;52.162;4.516;2023-03-19T02:28:37;18.00;61.40
72905;DHT22;61048;52.162;4.516;2023-03-19T02:31:05;17.90;61.40
72905;DHT22;61048;52.162;4.516;2023-03-19T02:33:32;17.90;61.60
72905;DHT22;61048;52.162;4.516;2023-03-19T02:36:01;17.90;61.60
72905;DHT22;61048;52.162;4.516;2023-03-19T02:38:30;18.00;61.60
72905;DHT22;61048;52.162;4.516;2023-03-19T02:41:00;17.90;61.60
72905;DHT22;61048;52.162;4.516;2023-03-19T02:43:31;17.90;61.90
72905;DHT22;61048;52.162;4.516;2023-03-19T02:45:58;17.90;61.80
72905;DHT22;61048;52.162;4.516;2023-03-19T02:48:25;17.90;61.90
72905;DHT22;61048;52.162;4.516;2023-03-19T02:50:52;17.90;61.70
72905;DHT22;61048;52.162;4.516;2023-03-19T02:53:20;17.90;61.90
72905;DHT22;61048;52.162;4.516;2023-03-19T02:55:47;17.90;61.90
72905;DHT22;61048;52.162;4.516;2023-03-19T02:58:13;17.90;62.00
72905;DHT22;61048;52.162;4.516;2023-03-19T03:00:42;17.90;62.10
72905;DHT22;61048;52.162;4.516;2023-03-19T03:03:09;17.90;62.00
72905;DHT22;61048;52.162;4.516;2023-03-19T03:05:36;17.90;62.10
72905;DHT22;61048;52.162;4.516;2023-03-19T03:08:04;17.90;62.00
72905;DHT22;61048;52.162;4.516;2023-03-19T03:10:31;17.90;61.90
72905;DHT22;61048;52.162;4.516;2023-03-19T03:12:59;17.90;62.10
72905;DHT22;61048;52.162;4.516;2023-03-19T03:15:26;17.90;62.00
72905;DHT22;61048;52.162;4.516;2023-03-19T03:17:55;17.90;62.00
72905;DHT22;61048;52.162;4.516;2023-03-19T03:20:22;17.90;62.10
72905;DHT22;61048;52.162;4.516;2023-03-19T03:22:49;17.90;62.00
72905;DHT22;61048;52.162;4.516;2023-03-19T03:25:16;17.90;62.00
72905;DHT22;61048;52.162;4.516;2023-03-19T03:27:43;17.90;61.90
72905;DHT22;61048;52.162;4.516;2023-03-19T03:30:11;17.90;61.90
72905;DHT22;61048;52.162;4.516;2023-03-19T03:32:38;17.90;62.00
72905;DHT22;61048;52.162;4.516;2023-03-19T03:35:08;17.80;62.00
72905;DHT22;61048;52.162;4.516;2023-03-19T03:37:35;17.80;62.00
72905;DHT22;61048;52.162;4.516;2023-03-19T03:40:03;17.80;61.90
72905;DHT22;61048;52.162;4.516;2023-03-19T03:42:33;17.80;61.80
72905;DHT22;61048;52.162;4.516;2023-03-19T03:45:00;17.80;61.90
72905;DHT22;61048;52.162;4.516;2023-03-19T03:47:27;17.80;61.90
72905;DHT22;61048;52.162;4.516;2023-03-19T03:49:55;17.80;61.80
72905;DHT22;61048;52.162;4.516;2023-03-19T03:52:23;17.80;61.70
72905;DHT22;61048;52.162;4.516;2023-03-19T03:54:50;17.80;61.80
72905;DHT22;61048;52.162;4.516;2023-03-19T03:57:16;17.80;61.80
72905;DHT22;61048;52.162;4.516;2023-03-19T03:59:43;17.80;62.00
72905;DHT22;61048;52.162;4.516;2023-03-19T04:02:10;17.80;62.00
72905;DHT22;61048;52.162;4.516;2023-03-19T04:04:37;17.80;61.90
72905;DHT22;61048;52.162;4.516;2023-03-19T04:07:04;17.80;62.00
72905;DHT22;61048;52.162;4.516;2023-03-19T04:09:32;17.80;62.00
72905;DHT22;61048;52.162;4.516;2023-03-19T04:11:59;17.80;61.90
72905;DHT22;61048;52.162;4.516;2023-03-19T04:14:26;17.80;61.90
72905;DHT22;61048;52.162;4.516;2023-03-19T04:16:53;17.70;61.90
72905;DHT22;61048;52.162;4.516;2023-03-19T04:19:20;17.70;61.90
72905;DHT22;61048;52.162;4.516;2023-03-19T04:21:47;17.70;61.90
72905;DHT22;61048;52.162;4.516;2023-03-19T04:24:14;17.70;61.90
72905;DHT22;61048;52.162;4.516;2023-03-19T04:26:43;17.70;61.80
72905;DHT22;61048;52.162;4.516;2023-03-19T04:29:11;17.70;61.90
72905;DHT22;61048;52.162;4.516;2023-03-19T04:31:38;17.70;61.90
72905;DHT22;61048;52.162;4.516;2023-03-19T04:34:05;17.70;61.80
72905;DHT22;61048;52.162;4.516;2023-03-19T04:36:32;17.70;61.70
72905;DHT22;61048;52.162;4.516;2023-03-19T04:38:59;17.70;61.80
72905;DHT22;61048;52.162;4.516;2023-03-19T04:41:26;17.70;61.90
72905;DHT22;61048;52.162;4.516;2023-03-19T04:43:55;17.70;61.80
72905;DHT22;61048;52.162;4.516;2023-03-19T04:46:22;17.70;61.90
72905;DHT22;61048;52.162;4.516;2023-03-19T04:48:49;17.70;61.90
72905;DHT22;61048;52.162;4.516;2023-03-19T04:51:16;17.70;62.00
72905;DHT22;61048;52.162;4.516;2023-03-19T04:53:45;17.70;61.80
72905;DHT22;61048;52.162;4.516;2023-03-19T04:56:13;17.70;61.80
72905;DHT22;61048;52.162;4.516;2023-03-19T04:58:41;17.70;61.90
72905;DHT22;61048;52.162;4.516;2023-03-19T05:01:09;17.70;61.80
72905;DHT22;61048;52.162;4.516;2023-03-19T05:03:36;17.60;61.90
72905;DHT22;61048;52.162;4.516;2023-03-19T05:06:03;17.60;61.70
72905;DHT22;61048;52.162;4.516;2023-03-19T05:08:30;17.70;61.70
72905;DHT22;61048;52.162;4.516;2023-03-19T05:10:57;17.60;61.70
72905;DHT22;61048;52.162;4.516;2023-03-19T05:13:24;17.60;61.60
72905;DHT22;61048;52.162;4.516;2023-03-19T05:15:53;17.60;61.70
72905;DHT22;61048;52.162;4.516;2023-03-19T05:18:22;17.60;61.80
72905;DHT22;61048;52.162;4.516;2023-03-19T05:20:49;17.60;62.00
72905;DHT22;61048;52.162;4.516;2023-03-19T05:23:16;17.60;62.20
72905;DHT22;61048;52.162;4.516;2023-03-19T05:25:43;17.70;62.10
72905;DHT22;61048;52.162;4.516;2023-03-19T05:28:10;17.70;62.10
72905;DHT22;61048;52.162;4.516;2023-03-19T05:30:37;17.70;62.10
72905;DHT22;61048;52.162;4.516;2023-03-19T05:33:05;17.60;62.20
72905;DHT22;61048;52.162;4.516;2023-03-19T05:35:33;17.70;62.00
72905;DHT22;61048;52.162;4.516;2023-03-19T05:38:01;17.70;62.10
72905;DHT22;61048;52.162;4.516;2023-03-19T05:40:28;17.60;62.20
72905;DHT22;61048;52.162;4.516;2023-03-19T05:42:55;17.60;62.10
72905;DHT22;61048;52.162;4.516;2023-03-19T05:45:22;17.60;62.20
72905;DHT22;61048;52.162;4.516;2023-03-19T05:47:50;17.60;62.00
72905;DHT22;61048;52.162;4.516;2023-03-19T05:50:17;17.60;61.90
72905;DHT22;61048;52.162;4.516;2023-03-19T05:52:45;17.60;61.90
72905;DHT22;61048;52.162;4.516;2023-03-19T05:55:12;17.60;61.90
72905;DHT22;61048;52.162;4.516;2023-03-19T05:57:39;17.60;62.00
72905;DHT22;61048;52.162;4.516;2023-03-19T06:00:08;17.60;61.80
72905;DHT22;61048;52.162;4.516;2023-03-19T06:02:35;17.60;61.90
72905;DHT22;61048;52.162;4.516;2023-03-19T06:05:02;17.60;61.80
72905;DHT22;61048;52.162;4.516;2023-03-19T06:07:29;17.60;61.60
72905;DHT22;61048;52.162;4.516;2023-03-19T06:09:57;17.60;61.80
72905;DHT22;61048;52.162;4.516;2023-03-19T06:12:24;17.60;61.80
72905;DHT22;61048;52.162;4.516;2023-03-19T06:14:51;17.60;61.80
72905;DHT22;61048;52.162;4.516;2023-03-19T06:17:18;17.60;61.90
72905;DHT22;61048;52.162;4.516;2023-03-19T06:19:45;17.60;61.90
72905;DHT22;61048;52.162;4.516;2023-03-19T06:22:12;17.60;62.00
72905;DHT22;61048;52.162;4.516;2023-03-19T06:24:39;17.60;62.20
72905;DHT22;61048;52.162;4.516;2023-03-19T06:27:08;17.60;62.10
72905;DHT22;61048;52.162;4.516;2023-03-19T06:29:34;17.60;62.10
72905;DHT22;61048;52.162;4.516;2023-03-19T06:32:01;17.60;62.10
72905;DHT22;61048;52.162;4.516;2023-03-19T06:34:29;17.60;62.10
72905;DHT22;61048;52.162;4.516;2023-03-19T06:36:56;17.60;62.10
72905;DHT22;61048;52.162;4.516;2023-03-19T06:39:23;17.60;62.10
72905;DHT22;61048;52.162;4.516;2023-03-19T06:41:50;17.60;62.10
72905;DHT22;61048;52.162;4.516;2023-03-19T06:44:18;17.60;62.20
72905;DHT22;61048;52.162;4.516;2023-03-19T06:46:45;17.60;62.10
72905;DHT22;61048;52.162;4.516;2023-03-19T06:49:12;17.60;62.40
72905;DHT22;61048;52.162;4.516;2023-03-19T06:51:40;17.70;62.40
72905;DHT22;61048;52.162;4.516;2023-03-19T06:54:06;17.70;62.10
72905;DHT22;61048;52.162;4.516;2023-03-19T06:56:33;17.70;62.20
72905;DHT22;61048;52.162;4.516;2023-03-19T06:59:00;17.70;62.20
72905;DHT22;61048;52.162;4.516;2023-03-19T07:01:28;17.70;62.40
72905;DHT22;61048;52.162;4.516;2023-03-19T07:03:55;17.70;62.40
72905;DHT22;61048;52.162;4.516;2023-03-19T07:06:22;17.70;62.40
72905;DHT22;61048;52.162;4.516;2023-03-19T07:08:50;17.70;62.30
72905;DHT22;61048;52.162;4.516;2023-03-19T07:11:16;17.70;62.40
72905;DHT22;61048;52.162;4.516;2023-03-19T07:13:43;17.70;62.40
72905;DHT22;61048;52.162;4.516;2023-03-19T07:16:11;17.70;62.40
72905;DHT22;61048;52.162;4.516;2023-03-19T07:18:39;17.70;62.50
72905;DHT22;61048;52.162;4.516;2023-03-19T07:21:06;17.70;62.20
72905;DHT22;61048;52.162;4.516;2023-03-19T07:23:33;17.70;62.40
72905;DHT22;61048;52.162;4.516;2023-03-19T07:26:00;17.70;62.50
72905;DHT22;61048;52.162;4.516;2023-03-19T07:28:27;17.70;62.60
72905;DHT22;61048;52.162;4.516;2023-03-19T07:30:54;17.70;62.50
72905;DHT22;61048;52.162;4.516;2023-03-19T07:33:21;17.70;62.50
72905;DHT22;61048;52.162;4.516;2023-03-19T07:35:50;17.70;62.60
72905;DHT22;61048;52.162;4.516;2023-03-19T07:38:16;17.70;62.60
72905;DHT22;61048;52.162;4.516;2023-03-19T07:40:43;17.80;62.50
72905;DHT22;61048;52.162;4.516;2023-03-19T07:43:10;17.80;62.40
72905;DHT22;61048;52.162;4.516;2023-03-19T07:45:37;17.80;62.50
72905;DHT22;61048;52.162;4.516;2023-03-19T07:48:05;17.80;62.50
72905;DHT22;61048;52.162;4.516;2023-03-19T07:50:32;17.80;62.60
72905;DHT22;61048;52.162;4.516;2023-03-19T07:53:00;17.80;62.50
72905;DHT22;61048;52.162;4.516;2023-03-19T07:55:28;17.80;62.50
72905;DHT22;61048;52.162;4.516;2023-03-19T07:57:55;17.80;62.50
72905;DHT22;61048;52.162;4.516;2023-03-19T08:00:22;17.80;62.30
72905;DHT22;61048;52.162;4.516;2023-03-19T08:02:49;17.80;62.40
72905;DHT22;61048;52.162;4.516;2023-03-19T08:05:16;17.70;62.50
72905;DHT22;61048;52.162;4.516;2023-03-19T08:07:43;17.80;62.60
72905;DHT22;61048;52.162;4.516;2023-03-19T08:10:12;17.80;62.50
72905;DHT22;61048;52.162;4.516;2023-03-19T08:12:38;17.80;62.50
72905;DHT22;61048;52.162;4.516;2023-03-19T08:15:07;17.80;62.40
72905;DHT22;61048;52.162;4.516;2023-03-19T08:17:35;17.80;62.50
72905;DHT22;61048;52.162;4.516;2023-03-19T08:20:04;17.80;62.40
72905;DHT22;61048;52.162;4.516;2023-03-19T08:22:33;17.80;62.50
72905;DHT22;61048;52.162;4.516;2023-03-19T08:25:00;17.80;62.40
72905;DHT22;61048;52.162;4.516;2023-03-19T08:27:29;17.80;62.40
72905;DHT22;61048;52.162;4.516;2023-03-19T08:29:57;17.80;62.50
72905;DHT22;61048;52.162;4.516;2023-03-19T08:32:24;17.90;62.60
72905;DHT22;61048;52.162;4.516;2023-03-19T08:34:50;18.00;62.10
72905;DHT22;61048;52.162;4.516;2023-03-19T08:37:17;18.00;62.10
72905;DHT22;61048;52.162;4.516;2023-03-19T08:39:44;18.00;62.20
72905;DHT22;61048;52.162;4.516;2023-03-19T08:42:11;18.00;62.10
72905;DHT22;61048;52.162;4.516;2023-03-19T08:44:40;17.90;62.10
72905;DHT22;61048;52.162;4.516;2023-03-19T08:47:07;17.90;62.20
72905;DHT22;61048;52.162;4.516;2023-03-19T08:49:34;17.90;62.10
72905;DHT22;61048;52.162;4.516;2023-03-19T08:52:01;17.90;62.00
72905;DHT22;61048;52.162;4.516;2023-03-19T08:54:28;17.90;62.00
72905;DHT22;61048;52.162;4.516;2023-03-19T08:56:55;17.90;61.90
72905;DHT22;61048;52.162;4.516;2023-03-19T08:59:21;17.90;62.00
72905;DHT22;61048;52.162;4.516;2023-03-19T09:01:52;17.90;61.90
72905;DHT22;61048;52.162;4.516;2023-03-19T09:04:19;17.90;61.90
72905;DHT22;61048;52.162;4.516;2023-03-19T09:06:46;17.90;61.90
72905;DHT22;61048;52.162;4.516;2023-03-19T09:09:16;17.90;61.90
72905;DHT22;61048;52.162;4.516;2023-03-19T09:11:43;17.90;61.80
72905;DHT22;61048;52.162;4.516;2023-03-19T09:14:10;17.80;61.80
72905;DHT22;61048;52.162;4.516;2023-03-19T09:16:38;17.90;61.80
72905;DHT22;61048;52.162;4.516;2023-03-19T09:19:07;17.90;61.70
72905;DHT22;61048;52.162;4.516;2023-03-19T09:21:34;17.90;61.70
72905;DHT22;61048;52.162;4.516;2023-03-19T09:24:01;17.90;61.60
72905;DHT22;61048;52.162;4.516;2023-03-19T09:26:28;17.80;61.60
72905;DHT22;61048;52.162;4.516;2023-03-19T09:28:55;17.90;61.60
72905;DHT22;61048;52.162;4.516;2023-03-19T09:31:23;17.80;61.60
72905;DHT22;61048;52.162;4.516;2023-03-19T09:33:50;17.80;61.50
72905;DHT22;61048;52.162;4.516;2023-03-19T09:36:18;17.80;61.50
72905;DHT22;61048;52.162;4.516;2023-03-19T09:38:45;17.90;61.50
72905;DHT22;61048;52.162;4.516;2023-03-19T09:41:15;17.80;61.30
72905;DHT22;61048;52.162;4.516;2023-03-19T09:44:01;17.80;61.10
72905;DHT22;61048;52.162;4.516;2023-03-19T09:46:37;17.80;61.40
72905;DHT22;61048;52.162;4.516;2023-03-19T09:49:13;17.80;61.50
72905;DHT22;61048;52.162;4.516;2023-03-19T09:51:48;17.80;61.50
72905;DHT22;61048;52.162;4.516;2023-03-19T09:54:26;17.80;61.40
72905;DHT22;61048;52.162;4.516;2023-03-19T09:56:55;17.80;61.40
72905;DHT22;61048;52.162;4.516;2023-03-19T09:59:24;17.90;61.30
72905;DHT22;61048;52.162;4.516;2023-03-19T10:01:57;17.90;61.30
72905;DHT22;61048;52.162;4.516;2023-03-19T10:04:40;17.80;61.30
72905;DHT22;61048;52.162;4.516;2023-03-19T10:07:20;17.90;61.30
72905;DHT22;61048;52.162;4.516;2023-03-19T10:09:59;17.90;61.30
72905;DHT22;61048;52.162;4.516;2023-03-19T10:12:42;17.90;61.70
72905;DHT22;61048;52.162;4.516;2023-03-19T10:15:16;17.90;61.50
72905;DHT22;61048;52.162;4.516;2023-03-19T10:17:51;17.90;61.50
72905;DHT22;61048;52.162;4.516;2023-03-19T10:20:28;17.90;61.50
72905;DHT22;61048;52.162;4.516;2023-03-19T10:23:02;17.90;61.40
72905;DHT22;61048;52.162;4.516;2023-03-19T10:25:36;17.90;61.40
72905;DHT22;61048;52.162;4.516;2023-03-19T10:28:13;17.80;61.50
72905;DHT22;61048;52.162;4.516;2023-03-19T10:30:41;17.80;61.30
72905;DHT22;61048;52.162;4.516;2023-03-19T10:33:16;17.80;61.30
72905;DHT22;61048;52.162;4.516;2023-03-19T10:35:49;17.80;61.30
72905;DHT22;61048;52.162;4.516;2023-03-19T10:38:22;17.80;61.30
72905;DHT22;61048;52.162;4.516;2023-03-19T10:40:58;17.80;61.30
72905;DHT22;61048;52.162;4.516;2023-03-19T10:43:28;17.80;61.20
72905;DHT22;61048;52.162;4.516;2023-03-19T10:45:56;17.80;61.20
72905;DHT22;61048;52.162;4.516;2023-03-19T10:48:25;17.80;61.20
72905;DHT22;61048;52.162;4.516;2023-03-19T10:50:56;17.80;61.20
72905;DHT22;61048;52.162;4.516;2023-03-19T10:53:31;17.80;61.00
72905;DHT22;61048;52.162;4.516;2023-03-19T10:56:03;17.80;61.10
72905;DHT22;61048;52.162;4.516;2023-03-19T10:58:33;17.80;61.20
72905;DHT22;61048;52.162;4.516;2023-03-19T11:01:04;17.80;61.10
72905;DHT22;61048;52.162;4.516;2023-03-19T11:03:34;17.80;61.10
72905;DHT22;61048;52.162;4.516;2023-03-19T11:06:08;17.80;61.10
72905;DHT22;61048;52.162;4.516;2023-03-19T11:08:50;17.80;61.00
72905;DHT22;61048;52.162;4.516;2023-03-19T11:11:26;17.80;61.00
72905;DHT22;61048;52.162;4.516;2023-03-19T11:13:58;17.80;61.00
72905;DHT22;61048;52.162;4.516;2023-03-19T11:16:31;17.80;60.90
72905;DHT22;61048;52.162;4.516;2023-03-19T11:18:58;17.80;60.70
72905;DHT22;61048;52.162;4.516;2023-03-19T11:21:28;17.80;61.00
72905;DHT22;61048;52.162;4.516;2023-03-19T11:24:03;17.80;60.90
72905;DHT22;61048;52.162;4.516;2023-03-19T11:26:37;17.80;61.00
72905;DHT22;61048;52.162;4.516;2023-03-19T11:29:04;17.80;61.00
72905;DHT22;61048;52.162;4.516;2023-03-19T11:31:38;17.80;61.00
72905;DHT22;61048;52.162;4.516;2023-03-19T11:34:23;17.80;61.10
72905;DHT22;61048;52.162;4.516;2023-03-19T11:36:55;17.80;60.70
72905;DHT22;61048;52.162;4.516;2023-03-19T11:39:36;17.80;60.60
72905;DHT22;61048;52.162;4.516;2023-03-19T11:42:35;17.70;60.70
72905;DHT22;61048;52.162;4.516;2023-03-19T11:45:12;17.70;60.70
72905;DHT22;61048;52.162;4.516;2023-03-19T11:47:46;17.70;60.80
72905;DHT22;61048;52.162;4.516;2023-03-19T11:50:23;17.70;60.90
72905;DHT22;61048;52.162;4.516;2023-03-19T11:53:09;17.80;60.80
72905;DHT22;61048;52.162;4.516;2023-03-19T11:55:45;17.80;60.80
72905;DHT22;61048;52.162;4.516;2023-03-19T11:58:36;17.80;60.80
72905;DHT22;61048;52.162;4.516;2023-03-19T12:01:17;17.80;61.00
72905;DHT22;61048;52.162;4.516;2023-03-19T12:04:15;17.80;61.30
72905;DHT22;61048;52.162;4.516;2023-03-19T12:06:51;17.80;61.60
72905;DHT22;61048;52.162;4.516;2023-03-19T12:09:28;17.80;61.70
72905;DHT22;61048;52.162;4.516;2023-03-19T12:12:01;17.80;61.80
72905;DHT22;61048;52.162;4.516;2023-03-19T12:14:40;17.80;61.70
72905;DHT22;61048;52.162;4.516;2023-03-19T12:17:13;17.80;62.00
72905;DHT22;61048;52.162;4.516;2023-03-19T12:19:58;17.80;62.10
72905;DHT22;61048;52.162;4.516;2023-03-19T12:22:40;17.90;62.30
72905;DHT22;61048;52.162;4.516;2023-03-19T12:25:21;17.90;62.90
72905;DHT22;61048;52.162;4.516;2023-03-19T12:27:54;17.90;63.70
72905;DHT22;61048;52.162;4.516;2023-03-19T12:30:29;18.00;64.10
72905;DHT22;61048;52.162;4.516;2023-03-19T12:33:13;18.00;63.70
72905;DHT22;61048;52.162;4.516;2023-03-19T12:35:47;18.10;64.00
72905;DHT22;61048;52.162;4.516;2023-03-19T12:38:19;18.10;65.00
72905;DHT22;61048;52.162;4.516;2023-03-19T12:40:51;18.10;64.40
72905;DHT22;61048;52.162;4.516;2023-03-19T12:43:27;18.10;63.50
72905;DHT22;61048;52.162;4.516;2023-03-19T12:45:58;18.10;63.20
72905;DHT22;61048;52.162;4.516;2023-03-19T12:48:30;18.10;63.30
72905;DHT22;61048;52.162;4.516;2023-03-19T12:51:03;18.10;63.10
72905;DHT22;61048;52.162;4.516;2023-03-19T12:53:39;18.10;62.30
72905;DHT22;61048;52.162;4.516;2023-03-19T12:56:12;18.10;62.50
72905;DHT22;61048;52.162;4.516;2023-03-19T12:58:52;18.10;62.50
72905;DHT22;61048;52.162;4.516;2023-03-19T13:01:23;18.20;62.40
72905;DHT22;61048;52.162;4.516;2023-03-19T13:03:53;18.20;62.10
72905;DHT22;61048;52.162;4.516;2023-03-19T13:06:24;18.20;62.10
72905;DHT22;61048;52.162;4.516;2023-03-19T13:08:58;18.20;63.00
72905;DHT22;61048;52.162;4.516;2023-03-19T13:11:35;18.30;63.50
72905;DHT22;61048;52.162;4.516;2023-03-19T13:14:10;18.40;63.60
72905;DHT22;61048;52.162;4.516;2023-03-19T13:16:42;18.40;63.20
72905;DHT22;61048;52.162;4.516;2023-03-19T13:19:17;18.40;64.80
72905;DHT22;61048;52.162;4.516;2023-03-19T13:21:50;18.50;64.80
72905;DHT22;61048;52.162;4.516;2023-03-19T13:24:22;18.50;64.40
72905;DHT22;61048;52.162;4.516;2023-03-19T13:26:50;18.40;64.10
72905;DHT22;61048;52.162;4.516;2023-03-19T13:29:21;18.40;64.20
72905;DHT22;61048;52.162;4.516;2023-03-19T13:31:48;18.40;63.90
72905;DHT22;61048;52.162;4.516;2023-03-19T13:34:24;18.40;63.80
72905;DHT22;61048;52.162;4.516;2023-03-19T13:36:54;18.40;63.90
72905;DHT22;61048;52.162;4.516;2023-03-19T13:39:26;18.40;63.60
72905;DHT22;61048;52.162;4.516;2023-03-19T13:44:49;18.30;63.80
72905;DHT22;61048;52.162;4.516;2023-03-19T13:47:36;18.30;63.90
72905;DHT22;61048;52.162;4.516;2023-03-19T13:50:48;18.30;64.00
72905;DHT22;61048;52.162;4.516;2023-03-19T13:53:31;18.30;64.00
72905;DHT22;61048;52.162;4.516;2023-03-19T13:56:01;18.30;63.70
72905;DHT22;61048;52.162;4.516;2023-03-19T13:58:29;18.20;63.40
72905;DHT22;61048;52.162;4.516;2023-03-19T14:01:37;18.20;63.40
72905;DHT22;61048;52.162;4.516;2023-03-19T14:04:14;18.20;62.30
72905;DHT22;61048;52.162;4.516;2023-03-19T14:06:44;18.10;62.10
72905;DHT22;61048;52.162;4.516;2023-03-19T14:09:30;18.10;62.10
72905;DHT22;61048;52.162;4.516;2023-03-19T14:12:09;18.10;62.10
72905;DHT22;61048;52.162;4.516;2023-03-19T14:14:40;18.10;62.10
72905;DHT22;61048;52.162;4.516;2023-03-19T14:17:14;18.10;62.60
72905;DHT22;61048;52.162;4.516;2023-03-19T14:19:42;18.00;62.20
72905;DHT22;61048;52.162;4.516;2023-03-19T14:22:18;18.00;62.20
72905;DHT22;61048;52.162;4.516;2023-03-19T14:24:54;18.00;62.10
72905;DHT22;61048;52.162;4.516;2023-03-19T14:27:26;17.90;62.00
72905;DHT22;61048;52.162;4.516;2023-03-19T14:29:55;17.90;62.00
72905;DHT22;61048;52.162;4.516;2023-03-19T14:32:31;17.90;62.10
72905;DHT22;61048;52.162;4.516;2023-03-19T14:34:59;17.90;62.00
72905;DHT22;61048;52.162;4.516;2023-03-19T14:37:33;17.90;62.10
72905;DHT22;61048;52.162;4.516;2023-03-19T14:40:11;17.90;61.90
72905;DHT22;61048;52.162;4.516;2023-03-19T14:42:42;17.90;62.00
72905;DHT22;61048;52.162;4.516;2023-03-19T14:45:29;17.80;61.70
72905;DHT22;61048;52.162;4.516;2023-03-19T14:48:07;17.80;61.70
72905;DHT22;61048;52.162;4.516;2023-03-19T14:50:56;17.80;61.80
72905;DHT22;61048;52.162;4.516;2023-03-19T14:53:32;17.80;61.50
72905;DHT22;61048;52.162;4.516;2023-03-19T14:56:08;17.80;61.70
72905;DHT22;61048;52.162;4.516;2023-03-19T14:58:36;17.80;61.90
72905;DHT22;61048;52.162;4.516;2023-03-19T15:01:05;17.80;61.80
72905;DHT22;61048;52.162;4.516;2023-03-19T15:03:35;17.80;61.50
72905;DHT22;61048;52.162;4.516;2023-03-19T15:06:05;17.80;61.40
72905;DHT22;61048;52.162;4.516;2023-03-19T15:08:34;17.80;61.40
72905;DHT22;61048;52.162;4.516;2023-03-19T15:11:23;17.80;61.60
72905;DHT22;61048;52.162;4.516;2023-03-19T15:14:08;17.80;61.50
72905;DHT22;61048;52.162;4.516;2023-03-19T15:16:46;17.80;61.40
72905;DHT22;61048;52.162;4.516;2023-03-19T15:19:24;17.80;61.70
72905;DHT22;61048;52.162;4.516;2023-03-19T15:22:02;17.80;61.50
72905;DHT22;61048;52.162;4.516;2023-03-19T15:24:29;17.90;61.40
72905;DHT22;61048;52.162;4.516;2023-03-19T15:26:56;17.90;62.50
72905;DHT22;61048;52.162;4.516;2023-03-19T15:29:30;17.90;62.40
72905;DHT22;61048;52.162;4.516;2023-03-19T15:31:57;17.90;62.00
72905;DHT22;61048;52.162;4.516;2023-03-19T15:34:26;17.90;62.00
72905;DHT22;61048;52.162;4.516;2023-03-19T15:36:58;17.90;62.20
72905;DHT22;61048;52.162;4.516;2023-03-19T15:39:28;18.00;62.00
72905;DHT22;61048;52.162;4.516;2023-03-19T15:41:58;18.00;61.50
72905;DHT22;61048;52.162;4.516;2023-03-19T15:44:29;18.00;61.50
72905;DHT22;61048;52.162;4.516;2023-03-19T15:47:01;18.00;61.50
72905;DHT22;61048;52.162;4.516;2023-03-19T15:49:33;18.00;61.40
72905;DHT22;61048;52.162;4.516;2023-03-19T15:52:04;18.00;61.70